Argenta, Texas
Current Conditions -  °F | °C
As of 1:35 PM on Friday 31 Oct 2014 (Local Time) from KRBO Reporting Station
Heavy Rain Heavy Rain  
Wind Chill: 76°   Ceiling: Unl
Heat Index: 78°   Visibility: 7mi
Dew Point: 57°   Wind: 10mph
Humidity: 52%   Direction: 30°NNE
Pressure: 30.2"   Gusts: NA
Location:  28.0654°N, 97.7489°W
Report Text: KRBO 311835Z AUTO 03009KT 7SM +RA CLR 25/14 A3020 RMK AO2 T02450141
Loading
Personal Weather Stations






























Interactive Weather Map
Tropical Storm Tracking
New forecast layout! Learn more

10-Day Weather Forecast

Advertisements
Track Severe Weather on mobile